createdAt,value
2016-12-27T00:41:07.575Z,1020.19
2016-12-27T00:41:56.461Z,1020.42
2016-12-27T00:42:43.487Z,1020.13
2016-12-27T00:43:32.074Z,1020.36
2016-12-27T00:44:20.593Z,1020.35
2016-12-27T00:45:09.300Z,1020.73
2016-12-27T00:45:58.293Z,1020.81
2016-12-27T00:46:46.666Z,1020.18
2016-12-27T00:47:35.244Z,1019.98
2016-12-27T00:48:23.737Z,1019.97
2016-12-27T00:49:12.636Z,1020.39
2016-12-27T00:50:01.068Z,1020.58
2016-12-27T00:50:50.387Z,1020.5
2016-12-27T00:51:38.609Z,1020.29
2016-12-27T00:52:27.364Z,1020.28
2016-12-27T00:53:16.436Z,1020.53
2016-12-27T00:54:05.034Z,1020.39
2016-12-27T00:54:53.663Z,1020.28
2016-12-27T00:55:42.059Z,1020.43
2016-12-27T00:56:30.998Z,1020.46
2016-12-27T00:57:19.264Z,1020.68
2016-12-27T00:58:08.093Z,1020.7
2016-12-27T00:58:56.949Z,1020.43
2016-12-27T00:59:45.369Z,1020.45
2016-12-27T01:00:34.012Z,1020.55
2016-12-27T01:01:22.585Z,1020.52
2016-12-27T01:02:11.122Z,1020.58
2016-12-27T01:03:00.434Z,1020.5
2016-12-27T01:03:48.629Z,1021.08
2016-12-27T01:04:37.363Z,1020.71
2016-12-27T01:05:26.434Z,1020.54
2016-12-27T01:06:14.831Z,1020.73
2016-12-27T01:07:03.414Z,1020.73
2016-12-27T01:07:51.994Z,1020.45
2016-12-27T01:08:34.992Z,1021.1
2016-12-27T01:09:15.499Z,1020.66
2016-12-27T01:09:56.001Z,1020.69
2016-12-27T01:10:36.487Z,1020.9
2016-12-27T01:11:16.954Z,1020.84
2016-12-27T01:11:57.439Z,1020.89
2016-12-27T01:12:37.951Z,1020.88
2016-12-27T01:13:18.378Z,1020.81
2016-12-27T01:13:58.860Z,1020.98
2016-12-27T01:14:39.341Z,1020.73
2016-12-27T01:15:19.839Z,1020.76
2016-12-27T01:16:00.308Z,1021.03
2016-12-27T01:16:40.792Z,1020.89
2016-12-27T01:17:21.307Z,1020.88
2016-12-27T01:18:01.765Z,1020.93
2016-12-27T01:18:42.272Z,1020.95
2016-12-27T01:19:22.740Z,1020.93
2016-12-27T01:20:03.219Z,1021.06
2016-12-27T01:20:43.711Z,1020.9
2016-12-27T01:21:24.186Z,1020.73
2016-12-27T01:22:04.653Z,1020.88
2016-12-27T01:22:45.114Z,1020.97
2016-12-27T01:23:25.604Z,1020.94
2016-12-27T01:24:06.091Z,1021.01
2016-12-27T01:24:46.595Z,1020.97
2016-12-27T01:25:27.088Z,1021.07
2016-12-27T01:26:07.529Z,1020.96
2016-12-27T01:26:48.028Z,1020.91
2016-12-27T01:27:28.566Z,1021.22
2016-12-27T01:28:09.038Z,1020.86
2016-12-27T01:28:49.499Z,1021.06
2016-12-27T01:29:29.942Z,1021.38
2016-12-27T01:30:10.443Z,1021.04
2016-12-27T01:30:50.933Z,1020.82
2016-12-27T01:31:31.479Z,1020.95
2016-12-27T01:32:11.940Z,1021.29
2016-12-27T01:32:52.447Z,1021.05
2016-12-27T01:33:32.981Z,1021.17
2016-12-27T01:34:13.477Z,1021.03
2016-12-27T01:34:53.977Z,1021.12
2016-12-27T01:35:34.480Z,1021.02
2016-12-27T01:36:14.927Z,1021.52
2016-12-27T01:36:55.410Z,1021.28
2016-12-27T01:37:35.842Z,1021.16
2016-12-27T01:38:16.388Z,1020.99
2016-12-27T01:38:56.908Z,1021.46
2016-12-27T01:39:37.356Z,1021.48
2016-12-27T01:40:17.793Z,1021.04
2016-12-27T01:40:58.245Z,1021.25
2016-12-27T01:41:38.750Z,1021.49
2016-12-27T01:42:19.217Z,1021.05
2016-12-27T01:42:59.714Z,1021.43
2016-12-27T01:43:40.233Z,1021.56
2016-12-27T01:44:20.653Z,1021.83
2016-12-27T01:45:01.198Z,1021.55
2016-12-27T01:45:41.644Z,1021.46
2016-12-27T01:46:22.141Z,1021.27
2016-12-27T01:47:02.593Z,1021.61
2016-12-27T01:47:43.047Z,1021.84
2016-12-27T01:48:23.548Z,1021.75
2016-12-27T01:49:04.072Z,1021.41
2016-12-27T01:49:44.539Z,1021.47
2016-12-27T01:50:24.977Z,1021.25
2016-12-27T01:51:05.454Z,1021.49
2016-12-27T01:51:45.937Z,1021.33
2016-12-27T01:52:26.443Z,1021.42
2016-12-27T01:53:06.897Z,1021.32
2016-12-27T01:53:47.395Z,1021.5
2016-12-27T01:54:27.897Z,1021.49
2016-12-27T01:55:08.371Z,1021.6
2016-12-27T01:55:48.885Z,1021.74
2016-12-27T01:56:29.330Z,1021.46
2016-12-27T01:57:09.798Z,1021.54
2016-12-27T01:57:50.266Z,1021.62
2016-12-27T01:58:30.816Z,1021.6
2016-12-27T01:59:11.334Z,1021.59
2016-12-27T01:59:51.836Z,1021.52
2016-12-27T02:00:32.288Z,1021.79
2016-12-27T02:01:12.841Z,1021.54
2016-12-27T02:01:53.316Z,1021.85
2016-12-27T02:02:33.791Z,1021.84
2016-12-27T02:03:14.286Z,1021.66
2016-12-27T02:03:54.789Z,1021.74
2016-12-27T02:04:35.240Z,1021.58
2016-12-27T02:05:15.778Z,1021.67
2016-12-27T02:05:56.295Z,1021.61
2016-12-27T02:06:36.767Z,1021.75
2016-12-27T02:07:17.246Z,1021.55
2016-12-27T02:07:57.774Z,1022.53
2016-12-27T02:08:38.196Z,1021.92
2016-12-27T02:09:18.688Z,1021.56
2016-12-27T02:09:59.198Z,1021.7
2016-12-27T02:10:40.639Z,1021.78
2016-12-27T02:11:21.071Z,1022.03
2016-12-27T02:12:01.585Z,1022.36
2016-12-27T02:12:42.056Z,1021.74
2016-12-27T02:13:22.528Z,1021.36
2016-12-27T02:14:02.948Z,1021.99
2016-12-27T02:14:43.458Z,1021.93
2016-12-27T02:15:23.935Z,1021.91
2016-12-27T02:16:04.479Z,1021.88
2016-12-27T02:16:44.879Z,1021.83
2016-12-27T02:17:25.354Z,1021.7
2016-12-27T02:18:05.857Z,1021.57
2016-12-27T02:18:46.352Z,1021.71
2016-12-27T02:19:26.794Z,1021.69
2016-12-27T02:20:07.286Z,1022.07
2016-12-27T02:20:47.731Z,1021.72
2016-12-27T02:21:28.191Z,1021.78
2016-12-27T02:22:08.663Z,1021.92
2016-12-27T02:22:49.172Z,1021.62
2016-12-27T02:23:29.651Z,1021.67
2016-12-27T02:24:10.094Z,1021.55
2016-12-27T02:24:50.623Z,1021.56
2016-12-27T02:25:31.079Z,1021.52
2016-12-27T02:26:11.618Z,1021.8
2016-12-27T02:26:52.055Z,1021.67
2016-12-27T02:27:32.532Z,1021.83
2016-12-27T02:28:13.063Z,1021.79
2016-12-27T02:28:53.535Z,1021.73
2016-12-27T02:29:34.027Z,1021.83
2016-12-27T02:30:14.508Z,1021.78
2016-12-27T02:30:54.964Z,1021.89
2016-12-27T02:31:35.453Z,1021.72
2016-12-27T02:32:15.898Z,1021.92
2016-12-27T02:32:56.494Z,1021.69
2016-12-27T02:33:36.952Z,1021.85
2016-12-27T02:34:17.411Z,1021.81
2016-12-27T02:34:57.907Z,1021.94
2016-12-27T02:35:38.602Z,1022.1
2016-12-27T02:36:19.014Z,1021.82
2016-12-27T02:38:17.905Z,1022.32
2016-12-27T02:39:06.904Z,1022.1
2016-12-27T02:39:55.348Z,1022.14
2016-12-27T02:40:43.822Z,1022.03
2016-12-27T02:41:32.418Z,1022.17
2016-12-27T02:42:21.009Z,1022.23
2016-12-27T02:43:10.228Z,1022.11
2016-12-27T02:43:59.249Z,1022.02
2016-12-27T02:44:47.818Z,1021.97
2016-12-27T02:45:36.445Z,1022.19
2016-12-27T02:46:25.001Z,1022.09
2016-12-27T02:47:13.396Z,1022.06
2016-12-27T02:48:02.258Z,1022.31
2016-12-27T02:48:51.127Z,1022.15
2016-12-27T02:49:39.514Z,1022.39
2016-12-27T02:50:28.380Z,1022.34
2016-12-27T02:51:16.786Z,1022.36
2016-12-27T02:52:05.754Z,1022.56
2016-12-27T02:52:54.490Z,1022.21
2016-12-27T02:53:43.218Z,1022.28
2016-12-27T02:54:32.040Z,1022.38
2016-12-27T02:55:20.750Z,1023.11
2016-12-27T02:56:09.289Z,1022.29
2016-12-27T02:56:57.958Z,1022.55
2016-12-27T02:57:46.922Z,1022.46
2016-12-27T02:58:35.733Z,1022.57
2016-12-27T02:59:23.913Z,1022.68
2016-12-27T03:00:12.517Z,1022.48
2016-12-27T03:01:01.665Z,1022.46
2016-12-27T03:01:50.011Z,1022.49
2016-12-27T03:02:38.789Z,1022.64
2016-12-27T03:03:27.704Z,1022.46
2016-12-27T03:04:16.534Z,1022.9
2016-12-27T03:05:04.687Z,1022.34
2016-12-27T03:05:53.742Z,1022.88
2016-12-27T03:06:41.907Z,1022.85
2016-12-27T03:07:30.949Z,1022.49
2016-12-27T03:08:19.798Z,1022.76
2016-12-27T03:09:08.797Z,1022.73
2016-12-27T03:09:57.219Z,1022.7
2016-12-27T03:10:46.096Z,1022.78
2016-12-27T03:11:34.664Z,1022.84
2016-12-27T03:12:23.202Z,1022.91
2016-12-27T03:13:12.077Z,1023.05
2016-12-27T03:14:01.033Z,1022.61
2016-12-27T03:14:49.674Z,1023.13
2016-12-27T03:15:37.986Z,1023.05
2016-12-27T03:16:27.192Z,1022.78
2016-12-27T03:17:15.746Z,1022.71
2016-12-27T03:18:04.349Z,1023.46
2016-12-27T03:18:53.487Z,1022.59
2016-12-27T03:19:41.383Z,1022.65
2016-12-27T03:20:30.382Z,1022.87
2016-12-27T03:21:18.846Z,1023.05
2016-12-27T03:22:08.141Z,1023.17
2016-12-27T03:22:56.778Z,1022.66
2016-12-27T03:23:45.439Z,1022.75
2016-12-27T03:24:34.459Z,1022.85
2016-12-27T03:25:22.707Z,1022.78
2016-12-27T03:26:11.313Z,1022.83
2016-12-27T03:26:59.970Z,1023.08
2016-12-27T03:27:49.216Z,1022.69
2016-12-27T03:28:37.521Z,1022.68
2016-12-27T03:29:26.348Z,1022.77
2016-12-27T03:30:14.968Z,1023.02
2016-12-27T03:31:04.142Z,1022.69
2016-12-27T03:31:52.737Z,1023.2
2016-12-27T03:32:41.272Z,1022.83
2016-12-27T03:33:30.134Z,1022.9
2016-12-27T03:34:18.487Z,1023.05
2016-12-27T03:35:07.304Z,1023
2016-12-27T03:35:55.968Z,1022.82
2016-12-27T03:36:44.979Z,1023.03
2016-12-27T03:37:33.687Z,1022.99
2016-12-27T03:38:21.867Z,1023.07
2016-12-27T03:39:10.854Z,1023.07
2016-12-27T03:39:53.854Z,1022.83
2016-12-27T03:40:34.392Z,1023.12
2016-12-27T03:41:14.854Z,1023.11
2016-12-27T03:41:56.216Z,1023.06
2016-12-27T03:42:36.765Z,1022.97
2016-12-27T03:43:17.234Z,1023.17
2016-12-27T03:43:57.735Z,1023.33
2016-12-27T03:44:38.173Z,1023.03
2016-12-27T03:45:18.640Z,1023.1
2016-12-27T03:45:59.118Z,1023.39
2016-12-27T03:46:39.595Z,1023.44
2016-12-27T03:47:20.108Z,1023.05
2016-12-27T03:48:00.578Z,1022.89
2016-12-27T03:48:41.046Z,1023.34
2016-12-27T03:49:21.550Z,1023.23
2016-12-27T03:50:02.040Z,1023.17
2016-12-27T03:50:42.562Z,1023.12
2016-12-27T03:51:23.022Z,1023.01
2016-12-27T03:52:03.477Z,1023.18
2016-12-27T03:52:43.924Z,1023.13
2016-12-27T03:53:24.400Z,1023.11
2016-12-27T03:54:04.845Z,1023.33
2016-12-27T03:54:45.400Z,1023.29
2016-12-27T03:55:25.869Z,1023.56
2016-12-27T03:56:06.355Z,1023.39
2016-12-27T03:56:46.882Z,1023.28
2016-12-27T03:57:27.380Z,1023.7
2016-12-27T03:58:07.818Z,1023.34
2016-12-27T03:58:48.313Z,1023.34
2016-12-27T03:59:28.788Z,1023.77
2016-12-27T04:00:09.245Z,1023.49
2016-12-27T04:00:49.714Z,1023.35
2016-12-27T04:01:30.223Z,1023.33
2016-12-27T04:02:10.694Z,1023.66
2016-12-27T04:02:51.160Z,1023.71
2016-12-27T04:03:31.678Z,1023.83
2016-12-27T04:04:12.181Z,1023.5
2016-12-27T04:04:52.617Z,1023.9
2016-12-27T04:05:33.056Z,1023.62
2016-12-27T04:06:13.546Z,1023.76
2016-12-27T04:06:54.017Z,1023.9
2016-12-27T04:07:34.493Z,1023.64
2016-12-27T04:08:14.944Z,1023.68
2016-12-27T04:08:55.408Z,1023.66
2016-12-27T04:09:35.904Z,1023.48
2016-12-27T04:10:16.393Z,1024.33
2016-12-27T04:10:56.955Z,1023.62
2016-12-27T04:11:37.528Z,1023.61
2016-12-27T04:12:17.993Z,1023.74
2016-12-27T04:12:58.506Z,1023.67
2016-12-27T04:13:38.933Z,1023.63
2016-12-27T04:14:19.465Z,1023.63
2016-12-27T04:14:59.965Z,1023.62
2016-12-27T04:15:40.477Z,1023.65
2016-12-27T04:16:20.990Z,1023.76
2016-12-27T04:17:01.446Z,1023.6
2016-12-27T04:17:41.936Z,1023.65
2016-12-27T04:18:22.393Z,1023.58
2016-12-27T04:19:02.855Z,1023.47
2016-12-27T04:19:43.422Z,1023.6
2016-12-27T04:20:23.841Z,1023.54
2016-12-27T04:21:04.346Z,1023.67
2016-12-27T04:21:44.800Z,1023.81
2016-12-27T04:22:25.277Z,1023.6
2016-12-27T04:23:05.729Z,1023.8
2016-12-27T04:23:46.233Z,1023.66
2016-12-27T04:24:26.693Z,1023.65
2016-12-27T04:25:07.193Z,1023.64
2016-12-27T04:25:47.662Z,1023.83
2016-12-27T04:26:28.129Z,1023.83
2016-12-27T04:27:08.586Z,1023.76
2016-12-27T04:27:49.058Z,1023.76
2016-12-27T04:28:29.593Z,1023.83
2016-12-27T04:29:09.998Z,1023.79
2016-12-27T04:29:50.458Z,1024.04
2016-12-27T04:30:30.960Z,1024.29
2016-12-27T04:31:12.129Z,1023.91
2016-12-27T04:31:52.624Z,1023.87
2016-12-27T04:32:33.111Z,1023.84
2016-12-27T04:33:13.530Z,1023.94
2016-12-27T04:33:54.055Z,1024.16
2016-12-27T04:34:34.506Z,1024.23
2016-12-27T04:35:14.995Z,1024.09
2016-12-27T04:35:55.433Z,1023.89
2016-12-27T04:36:35.897Z,1023.97
2016-12-27T04:37:16.421Z,1023.99
2016-12-27T04:37:56.882Z,1024.14
2016-12-27T04:38:37.360Z,1024.12
2016-12-27T04:39:17.846Z,1024.33
2016-12-27T04:39:58.327Z,1023.95
2016-12-27T04:40:38.924Z,1024.55
2016-12-27T04:41:19.422Z,1023.84
2016-12-27T04:41:59.858Z,1023.82
2016-12-27T04:42:40.332Z,1023.9
2016-12-27T04:43:20.800Z,1023.93
2016-12-27T04:44:01.309Z,1023.99
2016-12-27T04:44:41.791Z,1024.17
2016-12-27T04:45:22.243Z,1024.35
2016-12-27T04:46:02.743Z,1023.94
2016-12-27T04:46:43.215Z,1024.05
2016-12-27T04:47:23.707Z,1024.18
2016-12-27T04:48:04.246Z,1024.01
2016-12-27T04:48:44.683Z,1024.5
2016-12-27T04:49:25.161Z,1024.22
2016-12-27T04:50:05.615Z,1024.15
2016-12-27T04:50:46.078Z,1024.12
2016-12-27T04:51:26.631Z,1024.58
2016-12-27T04:52:07.107Z,1024.25
2016-12-27T04:54:41.760Z,1024.24
2016-12-27T04:55:30.291Z,1024.37
2016-12-27T04:56:18.789Z,1024.28
2016-12-27T04:57:07.826Z,1024.55
2016-12-27T04:57:56.671Z,1024.35
2016-12-27T04:58:44.944Z,1024.57
2016-12-27T04:59:34.135Z,1024.18
2016-12-27T05:00:22.193Z,1024.54
2016-12-27T05:01:10.520Z,1024.55
2016-12-27T05:01:59.178Z,1024.41
2016-12-27T05:02:47.595Z,1024.6
2016-12-27T05:03:36.413Z,1024.25
2016-12-27T05:04:25.321Z,1024.4
2016-12-27T05:05:14.227Z,1024.26
2016-12-27T05:06:02.705Z,1024.32
2016-12-27T05:06:51.621Z,1024.34
2016-12-27T05:07:40.286Z,1024.64
2016-12-27T05:08:29.182Z,1024.37
2016-12-27T05:09:17.414Z,1024.43
2016-12-27T05:10:06.255Z,1024.71
2016-12-27T05:10:55.220Z,1024.44
2016-12-27T05:11:43.750Z,1024.32
2016-12-27T05:12:32.646Z,1024.45
2016-12-27T05:13:21.424Z,1024.81
2016-12-27T05:14:09.894Z,1024.44
2016-12-27T05:14:58.442Z,1024.48
2016-12-27T05:15:47.474Z,1025.18
2016-12-27T05:16:35.759Z,1024.43
2016-12-27T05:17:24.707Z,1024.47
2016-12-27T05:18:13.338Z,1024.7
2016-12-27T05:19:01.793Z,1024.61
2016-12-27T05:19:50.756Z,1024.56
2016-12-27T05:20:38.965Z,1024.86
2016-12-27T05:21:27.830Z,1024.61
2016-12-27T05:22:16.375Z,1024.77
2016-12-27T05:23:05.094Z,1024.92
2016-12-27T05:23:54.216Z,1024.56
2016-12-27T05:24:42.688Z,1024.72
2016-12-27T05:25:30.936Z,1025.04
2016-12-27T05:26:20.304Z,1024.85
2016-12-27T05:27:08.775Z,1025.02
2016-12-27T05:27:57.278Z,1024.93
2016-12-27T05:28:45.908Z,1024.76
2016-12-27T05:29:34.529Z,1025.4
2016-12-27T05:30:23.159Z,1025.01
2016-12-27T05:31:12.425Z,1024.86
2016-12-27T05:32:00.805Z,1024.79
2016-12-27T05:32:49.484Z,1025.03
2016-12-27T05:33:38.345Z,1024.9
2016-12-27T05:34:27.130Z,1024.85
2016-12-27T05:35:15.798Z,1024.91
2016-12-27T05:36:04.878Z,1024.89
2016-12-27T05:36:52.975Z,1025.11
2016-12-27T05:37:41.386Z,1024.98
2016-12-27T05:38:30.735Z,1024.92
2016-12-27T05:39:19.329Z,1025.15
2016-12-27T05:40:08.351Z,1025.41
2016-12-27T05:40:56.956Z,1025.38
2016-12-27T05:41:45.825Z,1025.4
2016-12-27T05:42:34.626Z,1025.22
2016-12-27T05:43:23.296Z,1025.18
2016-12-27T05:44:12.217Z,1025.1
2016-12-27T05:45:00.704Z,1025.19
2016-12-27T05:45:48.975Z,1025.13
2016-12-27T05:46:37.780Z,1025.25
2016-12-27T05:47:26.334Z,1025.29
2016-12-27T05:48:14.918Z,1025.38
2016-12-27T05:49:03.866Z,1025.32
2016-12-27T05:49:52.291Z,1025.38
2016-12-27T05:50:40.992Z,1025.22
2016-12-27T05:51:30.419Z,1025.35
2016-12-27T05:52:19.225Z,1025.25
2016-12-27T05:53:07.770Z,1025.31
2016-12-27T05:53:56.200Z,1025.28
2016-12-27T05:54:44.913Z,1025.5
2016-12-27T05:55:33.403Z,1025.32
2016-12-27T05:56:22.228Z,1025.32
2016-12-27T05:57:10.725Z,1025.43
2016-12-27T05:57:59.649Z,1025.21
2016-12-27T05:58:48.021Z,1025.17
2016-12-27T05:59:37.190Z,1025.27
2016-12-27T06:00:25.425Z,1025.31
2016-12-27T06:01:14.263Z,1025.23
2016-12-27T06:02:02.802Z,1025.37
2016-12-27T06:02:51.789Z,1025.41
2016-12-27T06:03:40.269Z,1025.51
2016-12-27T06:04:28.925Z,1025.53
2016-12-27T06:05:17.940Z,1025.42
2016-12-27T06:06:06.607Z,1025.71
2016-12-27T06:06:54.966Z,1025.32
2016-12-27T06:07:43.550Z,1025.75
2016-12-27T06:08:32.685Z,1026.15
2016-12-27T06:09:21.324Z,1025.59
2016-12-27T06:10:09.886Z,1025.41
2016-12-27T06:10:58.817Z,1025.68
2016-12-27T06:11:47.981Z,1025.64
2016-12-27T06:12:36.686Z,1026.33
2016-12-27T06:13:24.929Z,1025.55
2016-12-27T06:14:13.498Z,1025.7
2016-12-27T06:15:02.846Z,1025.6
2016-12-27T06:15:50.997Z,1025.65
2016-12-27T06:16:39.881Z,1025.78
2016-12-27T06:17:28.728Z,1025.66
2016-12-27T06:18:17.676Z,1025.69
2016-12-27T06:19:06.320Z,1025.68
2016-12-27T06:19:54.777Z,1026.12
2016-12-27T06:20:43.328Z,1025.69
2016-12-27T06:21:32.030Z,1025.62
2016-12-27T06:22:21.228Z,1025.52
2016-12-27T06:23:10.256Z,1025.46
2016-12-27T06:23:58.655Z,1025.78
2016-12-27T06:24:47.147Z,1025.62
2016-12-27T06:25:36.122Z,1025.42
2016-12-27T06:26:24.479Z,1025.52
2016-12-27T06:27:13.419Z,1025.54
2016-12-27T06:27:56.628Z,1025.79
2016-12-27T06:28:37.140Z,1025.69
2016-12-27T06:29:17.600Z,1026.3
2016-12-27T06:29:58.101Z,1025.71
2016-12-27T06:30:38.585Z,1025.51
2016-12-27T06:31:19.042Z,1025.65
2016-12-27T06:31:59.536Z,1025.7
2016-12-27T06:32:39.984Z,1025.96
2016-12-27T06:33:20.520Z,1026.05
2016-12-27T06:34:01.035Z,1025.77
2016-12-27T06:34:41.451Z,1025.89
2016-12-27T06:35:21.945Z,1025.76
2016-12-27T06:36:02.419Z,1026.01
2016-12-27T06:36:42.938Z,1026.06
2016-12-27T06:37:23.544Z,1025.84
2016-12-27T06:38:03.889Z,1025.83
2016-12-27T06:38:44.438Z,1026.2
2016-12-27T06:39:24.916Z,1026.1
2016-12-27T06:40:05.406Z,1025.87
2016-12-27T06:40:45.863Z,1025.89
2016-12-27T06:41:26.315Z,1026.08
2016-12-27T06:42:06.820Z,1025.97
2016-12-27T06:42:47.272Z,1026.2
2016-12-27T06:43:27.781Z,1025.95
2016-12-27T06:44:08.286Z,1026.13
2016-12-27T06:44:48.719Z,1026.07
2016-12-27T06:45:29.891Z,1026.3
2016-12-27T06:46:10.368Z,1026.21
2016-12-27T06:46:50.831Z,1026.15
2016-12-27T06:47:31.296Z,1026.09
2016-12-27T06:48:11.814Z,1026.35
2016-12-27T06:48:52.272Z,1026.22
2016-12-27T06:49:32.719Z,1026.15
2016-12-27T06:50:13.249Z,1026.66
2016-12-27T06:50:53.674Z,1026.23
2016-12-27T06:51:34.197Z,1026.1
2016-12-27T06:52:14.681Z,1026.15
2016-12-27T06:52:55.221Z,1026.1
2016-12-27T06:53:35.675Z,1026.09
2016-12-27T06:54:16.151Z,1026.11
2016-12-27T06:54:56.673Z,1026.12
2016-12-27T06:55:37.141Z,1025.99
2016-12-27T06:56:17.572Z,1026.01
2016-12-27T06:56:58.090Z,1026.02
2016-12-27T06:57:38.563Z,1026.02
2016-12-27T06:58:19.000Z,1026.2
2016-12-27T06:58:59.492Z,1026.06
2016-12-27T06:59:39.981Z,1026.13
2016-12-27T07:00:20.453Z,1025.97
2016-12-27T07:01:00.994Z,1026.23
2016-12-27T07:01:41.468Z,1026.56
2016-12-27T07:02:21.968Z,1026.28
2016-12-27T07:03:02.477Z,1026.26
2016-12-27T07:03:43.003Z,1026.13
2016-12-27T07:04:23.450Z,1026.28
2016-12-27T07:05:04.171Z,1026.41
2016-12-27T07:05:44.674Z,1026.4
2016-12-27T07:06:25.159Z,1026.26
2016-12-27T07:07:05.611Z,1026.3
2016-12-27T07:07:46.101Z,1026.36
2016-12-27T07:08:26.674Z,1026.92
2016-12-27T07:09:07.175Z,1026.28
2016-12-27T07:09:47.658Z,1026.34
2016-12-27T07:10:28.096Z,1026.31
2016-12-27T07:11:08.569Z,1026.28
2016-12-27T07:11:48.998Z,1026.27
2016-12-27T07:12:29.484Z,1026.39
2016-12-27T07:13:09.981Z,1026.34
2016-12-27T07:13:50.464Z,1026.35
2016-12-27T07:14:30.933Z,1026.32
2016-12-27T07:15:11.509Z,1026.65
2016-12-27T07:15:51.932Z,1026.24
2016-12-27T07:16:32.370Z,1026.56
2016-12-27T07:17:12.829Z,1026.53
2016-12-27T07:17:53.261Z,1026.49
2016-12-27T07:18:33.797Z,1026.85
2016-12-27T07:19:14.223Z,1026.39
2016-12-27T07:19:54.739Z,1026.52
2016-12-27T07:20:35.211Z,1026.51
2016-12-27T07:21:15.750Z,1026.5
2016-12-27T07:21:56.201Z,1026.74
2016-12-27T07:22:36.673Z,1026.44
2016-12-27T07:23:17.137Z,1026.41
2016-12-27T07:23:57.607Z,1026.91
2016-12-27T07:24:38.967Z,1026.99
2016-12-27T07:25:19.463Z,1026.8
2016-12-27T07:25:59.911Z,1026.62
2016-12-27T07:26:40.347Z,1026.45
2016-12-27T07:27:20.864Z,1027.04
2016-12-27T07:28:01.355Z,1026.65
2016-12-27T07:28:41.799Z,1027.07
2016-12-27T07:29:22.327Z,1026.83
2016-12-27T07:30:02.773Z,1027.01
2016-12-27T07:30:43.247Z,1026.87
2016-12-27T07:31:23.763Z,1026.54
2016-12-27T07:32:04.237Z,1026.53
2016-12-27T07:32:44.687Z,1026.61
2016-12-27T07:33:25.216Z,1026.66
2016-12-27T07:34:05.666Z,1027.02
2016-12-27T07:34:46.177Z,1027
2016-12-27T07:35:26.640Z,1027.31
2016-12-27T07:36:07.115Z,1026.99
2016-12-27T07:36:47.573Z,1027.15
2016-12-27T07:37:28.085Z,1027
2016-12-27T07:38:08.574Z,1027.06
2016-12-27T07:38:49.008Z,1026.94
2016-12-27T07:39:29.469Z,1027.06
2016-12-27T07:40:09.993Z,1027.1
2016-12-27T07:40:50.548Z,1026.99
2016-12-27T07:41:30.965Z,1027.02
2016-12-27T07:42:11.483Z,1027.26
2016-12-27T07:42:51.944Z,1027
2016-12-27T07:43:32.395Z,1027.08
2016-12-27T07:44:12.894Z,1027.17
2016-12-27T07:44:53.347Z,1027.4
2016-12-27T07:45:33.879Z,1027.51
2016-12-27T07:46:14.337Z,1027.47
2016-12-27T07:46:54.794Z,1027.5
2016-12-27T07:47:35.261Z,1027.46
2016-12-27T07:48:15.733Z,1027.44
2016-12-27T07:48:56.269Z,1027.46
2016-12-27T07:49:36.784Z,1027.54
2016-12-27T07:50:17.245Z,1027.58
2016-12-27T07:50:57.707Z,1027.55
2016-12-27T07:51:38.172Z,1027.65
2016-12-27T07:52:18.656Z,1027.64
2016-12-27T07:52:59.170Z,1027.74
2016-12-27T07:53:39.581Z,1027.55
2016-12-27T07:54:20.052Z,1027.64
2016-12-27T07:55:00.644Z,1027.66
2016-12-27T07:55:41.051Z,1027.58
2016-12-27T07:56:21.566Z,1027.49
2016-12-27T07:57:02.040Z,1027.52
2016-12-27T07:57:42.530Z,1027.72
2016-12-27T07:58:23.054Z,1027.61
2016-12-27T07:59:03.419Z,1027.78
2016-12-27T07:59:43.949Z,1028.06
2016-12-27T08:00:24.394Z,1027.81
2016-12-27T08:01:04.895Z,1027.85
2016-12-27T08:01:46.024Z,1027.8
2016-12-27T08:02:26.524Z,1027.74
2016-12-27T08:03:07.002Z,1027.74
2016-12-27T08:03:47.476Z,1027.99
2016-12-27T08:04:27.974Z,1028
2016-12-27T08:05:08.456Z,1027.84
2016-12-27T08:05:48.964Z,1027.97
2016-12-27T08:06:29.394Z,1027.94
2016-12-27T08:07:09.877Z,1028.16
2016-12-27T08:07:50.359Z,1027.84
2016-12-27T08:08:30.846Z,1028.08
2016-12-27T08:09:11.274Z,1028.33
2016-12-27T08:09:51.745Z,1028.15
2016-12-27T08:10:32.255Z,1028.1
2016-12-27T08:11:12.762Z,1028.12
2016-12-27T08:11:53.222Z,1028.29
2016-12-27T08:12:33.789Z,1028.11
2016-12-27T08:13:14.355Z,1028.26
2016-12-27T08:13:54.790Z,1028.12
2016-12-27T08:14:35.282Z,1028.21
2016-12-27T08:15:15.747Z,1028.3
2016-12-27T08:15:56.228Z,1028.14
2016-12-27T08:16:36.708Z,1028.22
2016-12-27T08:17:17.216Z,1028.42
2016-12-27T08:17:57.674Z,1028.33
2016-12-27T08:18:38.169Z,1028.36
2016-12-27T08:19:18.636Z,1028.51
2016-12-27T08:19:59.155Z,1028.31
2016-12-27T08:20:39.645Z,1028.39
2016-12-27T08:21:20.131Z,1028.45
2016-12-27T08:22:00.607Z,1028.5
2016-12-27T08:22:41.091Z,1028.4
2016-12-27T08:23:21.580Z,1028.33
2016-12-27T08:24:02.156Z,1028.42
2016-12-27T08:24:42.591Z,1028.53
2016-12-27T08:25:23.082Z,1028.49
2016-12-27T08:26:03.549Z,1028.56
2016-12-27T08:26:44.064Z,1028.41
2016-12-27T08:27:24.601Z,1028.58
2016-12-27T08:28:05.041Z,1028.69
2016-12-27T08:28:45.551Z,1028.63
2016-12-27T08:29:25.997Z,1028.75
2016-12-27T08:30:06.535Z,1028.64
2016-12-27T08:30:47.069Z,1028.7
2016-12-27T08:31:27.544Z,1028.93
2016-12-27T08:32:08.074Z,1028.74
2016-12-27T08:32:48.561Z,1028.78
2016-12-27T08:33:29.860Z,1028.7
2016-12-27T08:34:10.350Z,1028.84
2016-12-27T08:34:50.836Z,1028.95
2016-12-27T08:35:31.335Z,1028.93
2016-12-27T08:36:11.839Z,1029.05
2016-12-27T08:36:52.318Z,1028.79
2016-12-27T08:37:32.824Z,1028.87
2016-12-27T08:38:13.257Z,1029.02
2016-12-27T08:38:53.746Z,1028.88
2016-12-27T08:39:35.169Z,1029.02
2016-12-27T08:40:15.623Z,1028.98
2016-12-27T08:40:56.087Z,1028.75
2016-12-27T08:41:36.553Z,1029.01
2016-12-27T08:42:17.071Z,1028.9
2016-12-27T08:42:57.541Z,1028.92
2016-12-27T08:43:38.130Z,1029.09
2016-12-27T08:44:18.560Z,1029.17
2016-12-27T08:44:59.254Z,1028.92
2016-12-27T08:45:39.723Z,1028.94
2016-12-27T08:46:20.197Z,1029.22
2016-12-27T08:47:00.708Z,1029.15
2016-12-27T08:47:41.147Z,1029.08
2016-12-27T08:48:21.593Z,1029.07
2016-12-27T08:49:02.121Z,1029.09
2016-12-27T08:49:42.720Z,1028.96
2016-12-27T08:50:23.195Z,1029.12
2016-12-27T08:51:03.726Z,1029.07
2016-12-27T08:53:26.978Z,1029.02
2016-12-27T08:54:15.436Z,1029.39
2016-12-27T08:55:04.257Z,1029.2
2016-12-27T08:55:53.546Z,1029.29
2016-12-27T08:56:42.256Z,1029.4
2016-12-27T08:57:30.697Z,1029.2
2016-12-27T08:58:19.663Z,1029.26
2016-12-27T08:59:08.610Z,1029.37
2016-12-27T08:59:56.907Z,1029.58
2016-12-27T09:00:46.468Z,1029.36
2016-12-27T09:01:35.592Z,1029.3
2016-12-27T09:02:23.970Z,1029.34
2016-12-27T09:03:13.265Z,1029.57
2016-12-27T09:04:01.641Z,1029.3
2016-12-27T09:04:50.390Z,1029.42
2016-12-27T09:05:39.358Z,1029.55
2016-12-27T09:06:25.436Z,1029.55
2016-12-27T09:07:05.813Z,1029.56
2016-12-27T09:07:46.336Z,1029.49
2016-12-27T09:08:26.913Z,1029.53
2016-12-27T09:09:07.383Z,1029.52
2016-12-27T09:11:41.241Z,1029.55
2016-12-27T09:12:29.747Z,1029.65
2016-12-27T09:13:17.597Z,1029.9
2016-12-27T09:14:05.903Z,1029.63
2016-12-27T09:14:51.401Z,1029.61
2016-12-27T09:15:40.603Z,1029.61
2016-12-27T09:16:29.296Z,1029.61
2016-12-27T09:17:17.723Z,1029.65
2016-12-27T09:18:00.874Z,1029.74
2016-12-27T09:18:41.370Z,1029.9
2016-12-27T09:19:21.839Z,1029.69
2016-12-27T09:20:02.308Z,1029.69
2016-12-27T09:20:42.809Z,1029.79
2016-12-27T09:21:23.266Z,1029.85
2016-12-27T09:22:03.778Z,1029.91
2016-12-27T09:22:44.232Z,1029.69
2016-12-27T09:23:24.682Z,1029.7
2016-12-27T09:24:05.146Z,1030.03
2016-12-27T09:24:45.611Z,1029.79
2016-12-27T09:25:26.097Z,1029.87
2016-12-27T09:26:06.566Z,1029.86
2016-12-27T09:26:47.120Z,1029.98
2016-12-27T09:27:27.747Z,1029.86
2016-12-27T09:28:08.216Z,1029.9
2016-12-27T09:28:48.678Z,1030.02
2016-12-27T09:29:29.171Z,1029.99
2016-12-27T09:30:09.662Z,1029.84
2016-12-27T09:30:50.125Z,1030.04
2016-12-27T09:31:30.603Z,1030.07
2016-12-27T09:32:11.102Z,1029.94
2016-12-27T09:32:51.605Z,1029.99